Skip to main content

NOAA/GLERL Met Station at Chicago, IL

Previous 5 days (top of hour only)
See also Previous 3 Hours (2 minute increments)
Jump down to Data
Switch to [English][Metric]
Zoom: Click and drag, Pan: shift-click and drag, Unzoom: double-click, Unzoom All




Note: Speed = mean wind during 2-minute period at top of hour,
Gust = max wind during 2-minute period at top of hour,
Peak = max wind during entire hour.
• See also 5-day windrose plot


NOAA/GLERL Met Station at Chicago, IL

Previous 5 days (top of hour only)
See also Previous 3 Hours (2 minute increments)
Jump up to Graphs
Switch to [English][Metric]
                  Wind  Wind  Wind   Air   Dew   Rel
                   Spd   Gst   Dir  Temp    Pt   Hum
YYYY-MM-DD   CST   kts   kts   deg     F     F     %
2020-01-27 00:00 -99.0 -99.0   -99   0.0   0.0   0.0
2020-01-26 17:00  11.1  12.6   247  31.1  29.8  95.0
2020-01-26 16:00  10.1  10.9   273  32.5  30.5  92.1
2020-01-26 15:00  12.1  13.2   255  33.1  30.6  90.4
2020-01-26 14:00   9.7  10.9   241  33.4  30.9  90.4
2020-01-26 13:00  10.5  12.1   246  34.0  31.2  89.4
2020-01-26 12:00  11.7  12.8   243  33.6  30.9  89.5
2020-01-26 11:00  11.1  12.2   244  32.2  30.6  94.0
2020-01-26 10:00  15.4  18.3   254  31.5  30.7  97.0
2020-01-26 09:00  16.9  18.3   263  31.1  30.3  97.0
2020-01-26 08:00  10.3  12.6   246  32.5  31.4  95.4
2020-01-26 07:00   9.5  11.1   274  33.1  31.8  95.0
2020-01-26 06:00  11.7  13.2   265  33.3  32.0  94.9
2020-01-26 05:00  12.8  14.4   273  33.4  32.2  95.2
2020-01-26 04:00  13.2  14.4   266  34.0  33.0  96.0
2020-01-26 03:00  11.3  12.2   263  34.0  32.8  95.5
2020-01-26 02:00  15.9  17.3   268  34.2  33.1  95.8
2020-01-26 01:00  15.2  17.7   260  34.3  33.6  97.0
2020-01-26 00:00  12.8  14.4   265  34.5  33.8  97.2
2020-01-25 23:00  13.0  15.4   263  34.3  34.1  99.2
2020-01-25 22:00  15.0  15.9   266  33.8  33.8 100.2
2020-01-25 21:00  14.8  15.9   266  34.0  33.9  99.7
2020-01-25 20:00  15.4  16.9   260  34.3  33.6  97.0
2020-01-25 19:00  15.0  15.9   272  34.2  33.4  97.1
2020-01-25 18:00  13.8  15.4   256  34.0  33.6  98.5
2020-01-25 17:00  13.6  15.0   254  34.0  33.9  99.5
2020-01-25 16:00  11.7  13.2   256  34.7  34.4  98.9
2020-01-25 15:00  13.2  15.0   266  34.7  34.8 100.2
2020-01-25 14:00  14.4  17.5   263  35.1  34.6  98.1
2020-01-25 13:00  12.4  13.8   265  35.1  34.8  99.1
2020-01-25 12:00  13.4  15.0   262  34.7  34.7 100.1
2020-01-25 11:00  11.7  13.0   264  33.8  33.8 100.2
2020-01-25 10:00  12.2  13.4   261  34.0  34.0 100.2
2020-01-25 09:00  10.7  11.7   259  34.0  34.0 100.2
2020-01-25 08:00  10.9  11.9   262  34.5  34.2  98.6
2020-01-25 07:00  11.5  12.4   265  34.3  34.4 100.2
2020-01-25 06:00  10.5  11.5   255  34.0  34.0 100.2
2020-01-25 05:00   9.3  10.1   242  33.8  33.8 100.2
2020-01-25 04:00   8.4  10.1   235  34.3  34.1  99.0
2020-01-25 03:00   9.7  11.9   247  34.0  34.0 100.2
2020-01-25 02:00  14.6  15.7   208  33.6  33.7 100.2
2020-01-25 01:00  12.2  14.0   202  34.0  34.0 100.2
2020-01-25 00:00   9.7  10.9   203  34.7  34.8 100.2
2020-01-24 23:00   7.8   8.4   194  35.6  35.7 100.2
2020-01-24 22:00  10.7  11.9   258  36.3  36.4 100.2
2020-01-24 21:00   8.7   9.5   199  36.3  36.4 100.2
2020-01-24 20:00   5.6   6.0   227  37.0  37.1 100.2
2020-01-24 19:00   9.7   9.7   197  37.2  37.3 100.2
2020-01-24 18:00   6.2   6.4   179  36.0  36.0 100.2
2020-01-24 17:00   1.9   2.1    90  36.1  36.2 100.2
2020-01-24 16:00   1.9   2.1    19  35.2  35.3 100.2
2020-01-24 15:00   1.6   1.7   132  35.8  35.8 100.2
2020-01-24 14:00   1.7   2.3   141  35.6  35.7 100.2
2020-01-24 13:00   4.7   5.4   112  35.8  35.8 100.2
2020-01-24 12:00   2.5   3.5   151  35.2  35.3 100.2
2020-01-24 11:00   6.6   6.8   123  35.8  35.8 100.2
2020-01-24 10:00   5.4   6.2   101  35.2  35.3 100.2
2020-01-24 09:00   8.7   9.1   116  35.4  35.5 100.2
2020-01-24 08:00   8.2   8.6   116  35.2  35.3 100.2
2020-01-24 07:00   9.7  10.3    97  35.4  35.5 100.2
2020-01-24 06:00   7.6   8.4    99  35.1  35.1 100.2
2020-01-24 05:00  11.1  11.7    98  35.1  35.1 100.2
2020-01-24 04:00  11.7  12.4    90  35.2  35.3 100.2
2020-01-24 03:00  12.8  14.0    76  35.6  35.7 100.2
2020-01-24 02:00  12.1  13.2    68  35.6  35.7 100.2
2020-01-24 01:00   9.5   9.7    73  35.2  35.3 100.2
2020-01-24 00:00   8.0   8.2    88  34.7  34.8 100.2
2020-01-23 23:00  13.6  15.0   112  35.6  34.3  95.0
2020-01-23 22:00  10.1  10.5    98  36.1  35.1  96.1
2020-01-23 21:00   8.2   8.6    85  35.1  34.4  97.3
2020-01-23 20:00  15.4  17.7   117  35.2  33.7  94.2
2020-01-23 19:00   7.8   8.7   121  33.6  33.7 100.2
2020-01-23 18:00   7.8   8.2   117  32.7  32.8 100.2
2020-01-23 17:00   8.7   9.3   129  32.7  32.8 100.2
2020-01-23 16:00   7.2   9.3   163  33.4  33.5 100.2
2020-01-23 15:00  10.7  11.5   166  33.4  33.5 100.2
2020-01-23 14:00  12.2  14.2   166  33.1  33.1 100.2
2020-01-23 13:00   9.3  10.9   163  32.5  32.6 100.2
2020-01-23 12:00  11.9  13.8   169  32.2  32.2 100.2
2020-01-23 11:00  10.9  11.9   171  31.6  31.7 100.2
2020-01-23 10:00  13.6  14.8   175  31.3  31.3 100.2
2020-01-23 09:00  15.7  16.5   181  31.5  31.4  99.8
2020-01-23 08:00  13.0  15.0   170  31.1  31.1 100.2
2020-01-23 07:00  13.0  15.0   172  30.7  30.8 100.2
2020-01-23 06:00  15.0  15.9   174  30.7  30.8 100.2
2020-01-23 05:00  15.6  16.9   176  30.4  30.4 100.2
2020-01-23 04:00  18.5  20.4   172  30.2  30.2 100.2
2020-01-23 03:00  15.6  17.3   176  30.2  30.2 100.2
2020-01-23 02:00  16.3  18.1   188  30.6  28.6  92.3
2020-01-23 01:00  21.0  23.1   188  33.8  22.4  62.6
2020-01-23 00:00  16.1  18.1   183  33.4  23.7  67.2
2020-01-22 23:00  19.6  22.6   186  33.6  22.7  64.0
2020-01-22 22:00  18.9  20.4   180  33.4  23.7  67.1
2020-01-22 21:00  17.3  18.7   180  33.3  24.3  69.3
2020-01-22 20:00  17.7  20.8   180  33.3  24.1  68.8
2020-01-22 19:00  17.9  21.0   177  33.4  26.4  75.0
2020-01-22 18:00  18.5  20.4   185  33.8  24.3  67.8
2020-01-22 17:00  20.2  22.0   178  34.3  26.0  71.3
2020-01-22 16:00  15.0  15.7   185  34.2  26.1  72.2
2020-01-22 15:00  12.8  14.0   174  34.0  25.5  70.7
2020-01-22 14:00  17.3  18.9   186  32.5  24.3  71.4
2020-01-22 13:00  19.8  21.6   185  31.5  23.1  71.0
2020-01-22 12:00  17.5  18.9   199  30.2  22.0  71.3
2020-01-22 11:00  22.0  23.9   204  28.9  21.1  72.3
2020-01-22 10:00  21.8  24.5   206  27.5  20.5  74.8
2020-01-22 09:00  18.9  21.2   205  26.4  21.0  79.9
2020-01-22 08:00  16.9  19.4   211  26.1  21.3  82.0
2020-01-22 07:00  21.4  24.5   208  26.1  21.1  81.2
2020-01-22 06:00  21.8  24.3   203  26.2  21.1  80.6
2020-01-22 05:00  23.9  27.2   199  26.4  20.9  79.5
2020-01-22 04:00  21.2  23.5   203  26.2  22.2  84.4
2020-01-22 03:00  21.6  23.9   209  26.2  22.3  84.8
2020-01-22 02:00  22.2  25.3   209  26.4  22.5  85.1
2020-01-22 01:00  23.5  27.0   203  26.8  22.9  85.0
2020-01-22 00:00  22.2  24.9   201  27.0  23.1  85.1
2020-01-21 23:00  19.8  22.7   198  27.5  23.4  84.4
2020-01-21 22:00  22.4  26.2   197  27.9  23.2  82.4
2020-01-21 21:00  21.4  23.9   197  28.6  22.9  78.9
2020-01-21 20:00  18.1  20.2   197  29.1  23.2  78.4
2020-01-21 19:00  17.9  19.4   194  29.3  22.3  75.0
2020-01-21 18:00  15.4  16.7   203  28.9  22.0  74.9